Time;durP1;ratioP1;P1;durP2;ratioP2;P2;SDS_P1;SDS_P2;PMS_P1;PMS_P2;Temp;Humidity;BMP_temperature;BMP_pressure;BME280_temperature;BME280_humidity;BME280_pressure;Samples;Min_cycle;Max_cycle;Signal;HPM_P1;HPM_P2
2024/04/03 00:00:24;;;;;;;0.88;0.68;;;14.60;99.90;;;;;;10099281;28;20057;-67
2024/04/03 00:05:15;;;;;;;3.03;0.50;;;14.50;99.90;;;;;;10110602;28;20028;-68
2024/04/03 00:10:05;;;;;;;1.23;0.85;;;14.50;99.90;;;;;;10102508;28;20029;-67
2024/04/03 00:14:56;;;;;;;2.00;0.80;;;14.50;99.90;;;;;;10100140;28;20139;-67
2024/04/03 00:19:47;;;;;;;1.65;1.00;;;14.40;99.90;;;;;;10100643;28;20511;-67
2024/04/03 00:24:38;;;;;;;1.27;0.80;;;14.40;99.90;;;;;;10107367;28;20032;-67
2024/04/03 00:29:29;;;;;;;2.00;0.65;;;14.30;99.90;;;;;;10106598;28;20039;-66
2024/04/03 00:34:20;;;;;;;1.05;0.68;;;14.30;99.90;;;;;;10106800;28;20499;-67
2024/04/03 00:39:10;;;;;;;0.80;0.60;;;14.30;99.90;;;;;;10106885;28;20025;-67
2024/04/03 00:44:01;;;;;;;1.85;0.75;;;14.30;99.90;;;;;;10121917;28;20086;-67
2024/04/03 00:48:52;;;;;;;2.53;0.70;;;14.20;99.90;;;;;;10097439;28;20033;-67
2024/04/03 00:53:42;;;;;;;1.98;0.82;;;14.00;99.90;;;;;;10106152;28;20150;-67
2024/04/03 00:58:34;;;;;;;2.03;0.80;;;14.10;99.90;;;;;;10106488;28;20112;-67
2024/04/03 01:03:24;;;;;;;1.58;0.68;;;14.00;99.90;;;;;;10106316;28;20061;-68
2024/04/03 01:08:15;;;;;;;1.60;0.75;;;14.00;99.90;;;;;;10106084;28;20025;-67
2024/04/03 01:13:06;;;;;;;3.90;1.02;;;13.90;99.90;;;;;;10108838;28;20041;-69
2024/04/03 01:17:56;;;;;;;1.85;0.77;;;13.80;99.90;;;;;;10104927;28;20388;-68
2024/04/03 01:22:47;;;;;;;1.60;1.30;;;13.80;99.90;;;;;;10104547;28;20032;-67
2024/04/03 01:27:38;;;;;;;1.35;0.95;;;13.80;99.90;;;;;;10102033;28;20516;-66
2024/04/03 01:32:28;;;;;;;1.77;1.17;;;13.70;99.90;;;;;;10110107;28;20037;-67
2024/04/03 01:37:20;;;;;;;1.27;1.00;;;13.80;99.90;;;;;;10107487;28;20037;-70
2024/04/03 01:42:14;;;;;;;4.35;0.93;;;13.70;99.90;;;;;;10097667;28;20030;-67
2024/04/03 01:47:05;;;;;;;2.35;0.70;;;13.60;99.90;;;;;;10104340;28;20029;-67
2024/04/03 01:51:56;;;;;;;1.58;0.70;;;13.60;99.90;;;;;;10104236;28;20028;-68
2024/04/03 01:56:46;;;;;;;2.00;0.77;;;13.60;99.90;;;;;;10102958;28;20025;-67
2024/04/03 02:01:38;;;;;;;2.38;0.90;;;13.60;99.90;;;;;;10103955;28;20040;-67
2024/04/03 02:06:29;;;;;;;1.48;0.93;;;13.50;99.90;;;;;;10103189;28;20509;-67
2024/04/03 02:11:19;;;;;;;2.83;1.30;;;13.40;99.90;;;;;;10104405;28;20040;-67
2024/04/03 02:16:10;;;;;;;2.20;0.80;;;13.30;99.90;;;;;;10103073;28;20108;-67
2024/04/03 02:21:01;;;;;;;1.08;0.77;;;13.40;99.90;;;;;;10102741;28;20048;-67
2024/04/03 02:25:51;;;;;;;1.92;1.13;;;13.40;99.90;;;;;;10102261;28;20403;-67
2024/04/03 02:30:42;;;;;;;1.95;1.17;;;13.30;99.90;;;;;;10102869;28;20525;-66
2024/04/03 02:35:32;;;;;;;1.10;0.77;;;13.30;99.90;;;;;;10102241;28;20590;-66
2024/04/03 02:40:23;;;;;;;1.70;0.82;;;13.30;99.90;;;;;;10101033;28;20028;-66
2024/04/03 02:45:14;;;;;;;1.95;1.10;;;13.30;99.90;;;;;;10101521;28;20033;-66
2024/04/03 02:50:05;;;;;;;2.05;1.30;;;13.20;99.90;;;;;;10100684;28;20057;-68
2024/04/03 02:54:55;;;;;;;2.75;1.17;;;13.20;99.90;;;;;;10106119;28;20041;-67
2024/04/03 02:59:46;;;;;;;2.63;0.90;;;13.30;99.90;;;;;;10101724;28;20517;-70
2024/04/03 03:04:41;;;;;;;2.08;0.93;;;13.20;99.90;;;;;;10101882;28;20112;-66
2024/04/03 03:09:34;;;;;;;2.65;1.40;;;13.20;99.90;;;;;;10101562;28;20036;-66
2024/04/03 03:14:24;;;;;;;2.60;0.93;;;13.10;99.90;;;;;;10102895;28;20051;-67
2024/04/03 03:19:15;;;;;;;3.42;0.95;;;13.10;99.90;;;;;;10099998;28;20738;-66
2024/04/03 03:24:06;;;;;;;2.85;0.90;;;13.10;99.90;;;;;;10100678;28;20029;-67
2024/04/03 03:28:56;;;;;;;1.35;0.75;;;13.10;99.90;;;;;;10100779;28;20021;-69
2024/04/03 03:33:47;;;;;;;3.58;0.88;;;13.10;99.90;;;;;;10100418;28;20072;-66
2024/04/03 03:38:39;;;;;;;2.35;1.13;;;13.10;99.90;;;;;;10100755;28;20551;-67
2024/04/03 03:43:30;;;;;;;1.90;0.80;;;13.10;99.90;;;;;;10100277;28;20040;-67
2024/04/03 03:52:35;;;;;;;3.30;0.88;;;13.00;99.90;;;;;;10100994;28;20044;-68
2024/04/03 03:53:32;;;;;;;1.63;0.93;;;13.00;99.90;;;;;;10097757;28;20037;-68
2024/04/03 03:58:23;;;;;;;2.70;1.45;;;13.00;99.90;;;;;;10108402;28;20083;-67
2024/04/03 04:03:13;;;;;;;2.17;0.88;;;12.90;99.90;;;;;;10106219;28;20429;-70
2024/04/03 04:08:04;;;;;;;1.58;1.17;;;13.00;99.90;;;;;;10108226;28;20028;-67
2024/04/03 04:12:55;;;;;;;1.30;0.80;;;12.90;99.90;;;;;;10110844;28;20035;-66
2024/04/03 04:17:45;;;;;;;2.72;0.88;;;13.00;99.90;;;;;;10105075;28;20053;-67
2024/04/03 04:22:36;;;;;;;3.38;1.52;;;12.90;99.90;;;;;;10106429;28;20043;-68
2024/04/03 04:27:26;;;;;;;2.30;1.08;;;12.90;99.90;;;;;;10106497;28;20036;-67
2024/04/03 04:32:17;;;;;;;1.67;0.90;;;12.90;99.90;;;;;;10114130;28;20041;-67
2024/04/03 04:37:08;;;;;;;2.47;1.10;;;12.90;99.90;;;;;;10106592;28;20029;-69
2024/04/03 04:41:59;;;;;;;2.97;0.85;;;12.90;99.90;;;;;;10106971;28;20033;-67
2024/04/03 04:46:51;;;;;;;2.35;0.60;;;12.90;99.90;;;;;;10107112;28;20029;-69
2024/04/03 04:51:42;;;;;;;3.58;1.38;;;12.90;99.90;;;;;;10106591;28;20045;-66
2024/04/03 04:56:33;;;;;;;1.58;1.08;;;12.80;99.90;;;;;;10100846;28;20036;-66
2024/04/03 05:01:24;;;;;;;1.80;0.80;;;12.80;99.90;;;;;;10106280;28;20064;-67
2024/04/03 05:06:15;;;;;;;1.27;0.88;;;12.90;99.90;;;;;;10098764;28;20051;-66
2024/04/03 05:11:07;;;;;;;2.03;1.20;;;12.90;99.90;;;;;;10108438;28;20040;-66
2024/04/03 05:16:07;;;;;;;1.90;0.93;;;12.90;99.90;;;;;;10102567;28;20061;-67
2024/04/03 05:20:58;;;;;;;1.83;1.33;;;12.90;99.90;;;;;;10105273;28;20041;-65
2024/04/03 05:25:59;;;;;;;1.65;1.17;;;12.80;99.90;;;;;;10104889;28;20031;-66
2024/04/03 05:30:49;;;;;;;1.60;0.90;;;12.80;99.90;;;;;;10104711;28;20406;-66
2024/04/03 05:35:40;;;;;;;3.80;1.27;;;12.70;99.90;;;;;;10104625;28;20037;-67
2024/04/03 05:40:31;;;;;;;1.90;1.10;;;12.70;99.90;;;;;;10103611;28;20052;-67
2024/04/03 05:45:22;;;;;;;1.85;1.05;;;12.60;99.90;;;;;;10089371;28;20028;-66
2024/04/03 05:50:14;;;;;;;1.50;0.93;;;12.60;99.90;;;;;;10100858;28;20578;-68
2024/04/03 05:55:05;;;;;;;1.90;0.73;;;12.60;99.90;;;;;;10102955;28;20060;-68
2024/04/03 05:59:55;;;;;;;2.10;0.90;;;12.60;99.90;;;;;;10098292;28;20482;-68
2024/04/03 06:04:46;;;;;;;2.08;1.10;;;12.60;99.90;;;;;;10103443;28;20025;-68
2024/04/03 06:09:37;;;;;;;1.67;0.70;;;12.60;99.90;;;;;;10103308;28;21446;-67
2024/04/03 06:14:28;;;;;;;1.77;0.73;;;12.70;99.90;;;;;;10103678;28;20043;-67
2024/04/03 06:19:19;;;;;;;1.05;0.80;;;12.80;99.90;;;;;;10101912;28;20068;-67
2024/04/03 06:24:09;;;;;;;1.67;0.82;;;12.90;99.90;;;;;;10102112;28;20505;-67
2024/04/03 06:29:01;;;;;;;1.15;0.75;;;12.90;99.90;;;;;;10103054;28;20103;-67
2024/04/03 06:33:52;;;;;;;2.03;0.80;;;12.90;99.90;;;;;;10101246;28;20429;-67
2024/04/03 06:38:43;;;;;;;1.40;0.73;;;13.00;99.90;;;;;;10098740;28;20044;-65
2024/04/03 06:43:34;;;;;;;1.23;0.70;;;12.90;99.90;;;;;;10101549;28;20033;-66
2024/04/03 06:48:24;;;;;;;3.50;1.00;;;13.00;99.90;;;;;;11362265;22;20262;-67
2024/04/03 06:53:15;;;;;;;5.70;1.00;;;12.90;99.90;;;;;;10158773;28;20071;-67
2024/04/03 06:58:06;;;;;;;3.22;1.00;;;12.90;99.90;;;;;;10139534;28;20089;-67
2024/04/03 07:02:56;;;;;;;2.75;1.17;;;12.80;99.90;;;;;;10139256;28;20044;-67
2024/04/03 07:07:47;;;;;;;3.42;0.75;;;12.80;99.90;;;;;;10154016;28;20099;-66
2024/04/03 07:12:39;;;;;;;2.40;0.98;;;12.70;99.90;;;;;;10177585;28;20028;-67
2024/04/03 07:17:29;;;;;;;2.20;1.05;;;12.80;99.90;;;;;;10172535;28;20020;-66
2024/04/03 07:22:20;;;;;;;3.22;1.17;;;12.80;99.90;;;;;;10167705;28;20039;-68
2024/04/03 07:27:11;;;;;;;1.10;1.00;;;12.80;99.90;;;;;;10159269;28;20036;-64
2024/04/03 07:32:02;;;;;;;2.25;1.13;;;12.90;99.90;;;;;;10164775;28;20044;-67
2024/04/03 07:36:52;;;;;;;2.38;1.08;;;13.00;99.90;;;;;;10164099;28;20417;-68
2024/04/03 07:41:43;;;;;;;1.77;1.00;;;13.00;99.90;;;;;;10154143;28;20344;-66
2024/04/03 07:46:33;;;;;;;2.08;1.35;;;13.10;99.90;;;;;;10154324;28;20021;-64
2024/04/03 07:51:24;;;;;;;2.97;1.05;;;13.20;99.90;;;;;;10163160;28;20321;-65
2024/04/03 07:56:15;;;;;;;4.15;1.20;;;13.20;99.90;;;;;;10174544;28;20031;-68
2024/04/03 08:01:05;;;;;;;2.05;1.20;;;13.20;99.90;;;;;;10162032;28;20036;-66
2024/04/03 08:05:56;;;;;;;2.58;1.50;;;13.20;99.90;;;;;;10168809;28;20025;-69
2024/04/03 08:10:49;;;;;;;2.80;1.05;;;13.20;99.90;;;;;;10139464;28;20039;-68
2024/04/03 08:15:39;;;;;;;2.60;0.98;;;13.20;99.90;;;;;;10144717;28;20500;-69
2024/04/03 08:20:30;;;;;;;2.78;1.00;;;13.20;99.90;;;;;;10137856;28;20024;-68
2024/04/03 08:25:20;;;;;;;2.58;0.90;;;13.20;99.90;;;;;;10147142;28;20146;-70
2024/04/03 08:30:11;;;;;;;1.90;1.10;;;13.30;99.90;;;;;;10136915;28;20090;-66
2024/04/03 08:35:03;;;;;;;4.47;1.73;;;13.40;99.90;;;;;;10158310;28;20044;-70
2024/04/03 08:39:54;;;;;;;2.25;1.33;;;13.40;99.90;;;;;;10135313;28;20683;-69
2024/04/03 08:44:45;;;;;;;2.10;1.05;;;13.40;99.90;;;;;;10123868;28;20047;-69
2024/04/03 08:49:39;;;;;;;7.15;0.90;;;13.40;99.90;;;;;;10149477;28;20154;-70
2024/04/03 08:54:30;;;;;;;2.65;0.80;;;13.40;99.90;;;;;;10162804;28;20044;-67
2024/04/03 08:59:21;;;;;;;3.90;1.20;;;13.50;99.90;;;;;;10159242;28;20112;-69
2024/04/03 09:04:12;;;;;;;5.38;1.05;;;13.50;99.90;;;;;;10154760;28;20489;-68
2024/04/03 09:09:03;;;;;;;3.35;0.98;;;13.40;99.90;;;;;;10147249;28;20031;-69
2024/04/03 09:13:55;;;;;;;1.98;0.90;;;13.40;99.90;;;;;;10146267;28;20402;-69
2024/04/03 09:18:46;;;;;;;1.17;0.90;;;13.40;99.90;;;;;;10132738;28;20021;-66
2024/04/03 09:23:38;;;;;;;1.60;0.80;;;13.40;99.90;;;;;;10144728;28;20553;-67
2024/04/03 09:28:28;;;;;;;2.45;0.82;;;13.50;99.90;;;;;;10149240;28;20513;-69
2024/04/03 09:33:19;;;;;;;1.25;0.73;;;13.50;99.90;;;;;;10151518;28;20037;-67
2024/04/03 09:38:10;;;;;;;2.90;1.00;;;13.50;99.90;;;;;;10113050;28;20029;-68
2024/04/03 09:43:05;;;;;;;1.00;0.52;;;13.40;99.90;;;;;;10144891;28;20123;-68
2024/04/03 09:47:59;;;;;;;1.23;0.50;;;13.40;99.90;;;;;;10155143;28;20043;-69
2024/04/03 09:52:51;;;;;;;0.75;0.50;;;13.40;99.90;;;;;;10153120;28;20042;-69
2024/04/03 09:57:42;;;;;;;2.53;0.68;;;13.40;99.90;;;;;;10135414;28;20029;-68
2024/04/03 10:02:33;;;;;;;1.60;0.68;;;13.40;99.90;;;;;;10146264;28;20098;-68
2024/04/03 10:07:27;;;;;;;1.40;0.85;;;13.50;99.90;;;;;;10154218;28;20603;-70
2024/04/03 10:12:21;;;;;;;0.45;0.38;;;13.50;99.90;;;;;;10148800;28;20031;-67
2024/04/03 10:17:15;;;;;;;0.70;0.55;;;13.60;99.90;;;;;;10156398;28;20104;-68
2024/04/03 10:22:06;;;;;;;0.85;0.45;;;13.70;99.90;;;;;;10147209;28;20380;-67
2024/04/03 10:26:57;;;;;;;1.63;0.80;;;13.70;99.90;;;;;;10150451;28;20189;-68
2024/04/03 10:31:48;;;;;;;0.60;0.50;;;13.80;99.90;;;;;;10137196;28;20028;-69
2024/04/03 10:36:40;;;;;;;0.55;0.55;;;13.90;99.90;;;;;;10135792;28;20047;-67
2024/04/03 10:41:31;;;;;;;1.92;0.60;;;13.90;99.90;;;;;;10155828;28;20057;-68
2024/04/03 10:46:26;;;;;;;1.95;0.63;;;14.00;99.90;;;;;;10151881;28;20040;-69
2024/04/03 10:51:17;;;;;;;0.90;0.90;;;14.00;99.90;;;;;;10154378;28;20052;-69
2024/04/03 10:56:08;;;;;;;1.60;0.73;;;14.00;99.90;;;;;;10149786;28;20384;-69
2024/04/03 11:00:59;;;;;;;1.15;0.60;;;14.10;99.90;;;;;;10138878;28;20649;-69
2024/04/03 11:05:51;;;;;;;0.85;0.40;;;14.20;99.90;;;;;;10147071;28;20159;-69
2024/04/03 11:10:41;;;;;;;1.48;0.68;;;14.10;99.90;;;;;;10145410;28;20027;-69
2024/04/03 11:15:33;;;;;;;0.55;0.47;;;14.10;99.90;;;;;;10146408;28;20409;-68
2024/04/03 11:20:25;;;;;;;1.13;1.00;;;14.20;99.90;;;;;;10140957;28;20055;-69
2024/04/03 11:25:15;;;;;;;1.23;0.70;;;14.30;99.90;;;;;;10137921;28;20139;-68
2024/04/03 11:30:09;;;;;;;3.17;0.80;;;14.30;99.90;;;;;;10122591;28;20132;-68
2024/04/03 11:35:00;;;;;;;0.95;0.47;;;14.20;99.90;;;;;;10106883;28;20041;-67
2024/04/03 11:39:51;;;;;;;0.80;0.60;;;14.10;99.90;;;;;;10112792;28;20545;-68
2024/04/03 11:44:42;;;;;;;0.82;0.60;;;14.00;99.90;;;;;;10117022;28;20599;-69
2024/04/03 11:49:32;;;;;;;3.03;0.77;;;14.00;99.90;;;;;;10129496;28;20444;-69
2024/04/03 11:54:23;;;;;;;1.50;0.50;;;14.00;99.90;;;;;;10125815;28;20071;-68
2024/04/03 11:59:13;;;;;;;0.90;0.68;;;14.00;99.90;;;;;;10129205;28;20017;-68
2024/04/03 12:04:04;;;;;;;2.72;0.88;;;14.00;99.90;;;;;;10117728;28;20040;-69
2024/04/03 12:08:57;;;;;;;1.25;0.50;;;14.10;99.90;;;;;;10137078;28;20027;-67
2024/04/03 12:13:47;;;;;;;1.45;0.90;;;14.10;99.90;;;;;;10135944;28;20520;-68
2024/04/03 12:18:48;;;;;;;3.00;0.50;;;14.10;99.90;;;;;;10149372;28;20024;-67
2024/04/03 12:23:41;;;;;;;2.53;0.45;;;14.20;99.90;;;;;;10143168;28;20418;-66
2024/04/03 12:28:32;;;;;;;1.17;0.45;;;14.20;99.90;;;;;;10139083;28;20020;-68
2024/04/03 12:33:24;;;;;;;0.70;0.60;;;14.10;99.90;;;;;;10154076;28;20513;-68
2024/04/03 12:38:14;;;;;;;0.40;0.38;;;14.20;99.90;;;;;;10150760;28;20031;-67
2024/04/03 12:43:06;;;;;;;1.30;0.70;;;14.20;99.90;;;;;;10151533;28;20027;-66
2024/04/03 12:47:59;;;;;;;1.33;0.40;;;14.10;99.90;;;;;;10154392;28;20040;-67
2024/04/03 12:52:49;;;;;;;1.13;0.50;;;14.10;99.90;;;;;;10141863;28;20039;-68
2024/04/03 12:57:40;;;;;;;2.05;0.50;;;14.00;99.90;;;;;;10144790;28;20028;-67
2024/04/03 13:02:31;;;;;;;0.75;0.40;;;14.10;99.90;;;;;;10150786;28;20033;-68
2024/04/03 13:07:22;;;;;;;0.90;0.52;;;14.10;99.90;;;;;;10149725;28;20024;-68
2024/04/03 13:12:13;;;;;;;1.33;0.43;;;14.10;99.90;;;;;;10129794;28;20123;-67
2024/04/03 13:17:03;;;;;;;1.00;0.45;;;14.10;99.90;;;;;;10151521;28;20113;-67
2024/04/03 13:21:54;;;;;;;0.88;0.52;;;14.10;99.90;;;;;;10159153;28;20051;-66
2024/04/03 13:26:44;;;;;;;1.20;0.45;;;14.10;99.90;;;;;;10154319;28;20401;-67
2024/04/03 13:31:35;;;;;;;1.63;0.50;;;14.10;99.90;;;;;;10157946;28;20818;-67
2024/04/03 13:36:26;;;;;;;1.60;0.40;;;14.00;99.90;;;;;;10155777;28;20036;-66
2024/04/03 13:41:16;;;;;;;1.02;0.57;;;14.00;99.90;;;;;;10153027;28;20024;-68
2024/04/03 13:46:07;;;;;;;0.80;0.43;;;14.00;99.90;;;;;;10141166;28;20482;-68
2024/04/03 13:50:59;;;;;;;0.70;0.68;;;14.00;99.90;;;;;;10144184;28;20046;-67
2024/04/03 13:56:02;;;;;;;0.82;0.70;;;14.00;99.90;;;;;;10147230;28;20029;-67
2024/04/03 14:01:00;;;;;;;0.90;0.50;;;14.00;99.90;;;;;;10146386;28;20063;-66
2024/04/03 14:05:51;;;;;;;1.77;0.52;;;14.00;99.90;;;;;;10145040;28;20025;-65
2024/04/03 14:10:41;;;;;;;2.83;0.98;;;14.10;99.90;;;;;;10162924;28;20035;-65
2024/04/03 14:15:32;;;;;;;2.17;0.80;;;14.00;99.90;;;;;;10147525;28;20464;-64
2024/04/03 14:20:23;;;;;;;2.33;0.70;;;14.20;99.90;;;;;;10130382;28;20032;-67
2024/04/03 14:25:13;;;;;;;1.08;0.80;;;14.40;99.90;;;;;;10147183;28;20056;-68
2024/04/03 14:30:05;;;;;;;1.20;0.60;;;14.60;99.90;;;;;;10124067;28;20029;-66
2024/04/03 14:34:56;;;;;;;1.48;0.80;;;14.70;99.90;;;;;;10147812;28;20396;-67
2024/04/03 14:39:46;;;;;;;1.85;0.95;;;14.80;99.90;;;;;;10154247;28;20023;-66
2024/04/03 14:44:37;;;;;;;1.35;1.00;;;14.80;99.90;;;;;;10151269;28;20036;-66
2024/04/03 14:49:32;;;;;;;1.85;1.00;;;14.90;99.90;;;;;;10143007;28;20388;-67
2024/04/03 14:54:22;;;;;;;1.10;0.65;;;14.90;99.90;;;;;;10141334;28;20093;-67
2024/04/03 14:59:13;;;;;;;1.02;0.50;;;14.90;99.90;;;;;;10148959;28;20028;-68
2024/04/03 15:04:04;;;;;;;0.55;0.43;;;14.70;99.90;;;;;;10150344;28;20040;-66
2024/04/03 15:08:56;;;;;;;1.08;0.47;;;14.70;99.90;;;;;;10147657;28;20397;-66
2024/04/03 15:13:46;;;;;;;1.60;0.63;;;14.60;99.90;;;;;;10137323;28;20052;-66
2024/04/03 15:18:37;;;;;;;1.23;0.55;;;14.60;99.90;;;;;;10140296;28;20516;-66
2024/04/03 15:23:29;;;;;;;1.20;0.73;;;14.60;99.90;;;;;;10160292;28;20039;-66
2024/04/03 15:28:21;;;;;;;2.17;0.70;;;14.70;99.90;;;;;;10142629;28;20021;-65
2024/04/03 15:33:12;;;;;;;1.35;0.40;;;14.80;99.90;;;;;;10155987;28;20122;-68
2024/04/03 15:38:03;;;;;;;1.30;0.73;;;14.80;99.90;;;;;;10146111;28;20128;-68
2024/04/03 15:42:53;;;;;;;1.75;0.57;;;15.20;99.90;;;;;;10138509;28;20036;-68
2024/04/03 15:47:44;;;;;;;1.48;0.50;;;15.30;99.90;;;;;;10145541;28;20040;-68
2024/04/03 15:52:35;;;;;;;0.95;0.70;;;15.90;99.90;;;;;;10169056;28;20052;-66
2024/04/03 15:57:25;;;;;;;0.63;0.40;;;15.90;99.90;;;;;;10161901;28;20024;-66
2024/04/03 16:02:16;;;;;;;0.75;0.50;;;15.70;99.90;;;;;;10145992;28;20064;-68
2024/04/03 16:07:07;;;;;;;1.75;0.43;;;15.50;99.90;;;;;;10149874;28;20099;-67
2024/04/03 16:11:57;;;;;;;1.25;0.57;;;15.30;99.90;;;;;;10144293;28;20516;-67
2024/04/03 16:16:48;;;;;;;1.60;0.57;;;15.20;99.90;;;;;;10170926;28;20033;-67
2024/04/03 16:21:39;;;;;;;0.95;0.57;;;15.10;99.90;;;;;;10148374;28;20032;-68
2024/04/03 16:26:29;;;;;;;0.82;0.63;;;15.10;99.90;;;;;;10148788;28;20024;-67
2024/04/03 16:31:20;;;;;;;2.97;1.20;;;15.10;99.90;;;;;;10152802;28;20045;-66
2024/04/03 16:36:11;;;;;;;0.63;0.57;;;15.30;99.90;;;;;;10144474;28;20062;-66
2024/04/03 16:41:02;;;;;;;1.90;1.00;;;15.90;99.90;;;;;;10150075;28;20090;-66
2024/04/03 16:45:53;;;;;;;1.38;0.70;;;16.20;99.90;;;;;;10149115;28;20020;-67
2024/04/03 16:50:45;;;;;;;1.52;0.70;;;16.30;99.90;;;;;;10155467;28;20056;-65
2024/04/03 16:55:35;;;;;;;2.70;0.85;;;16.90;99.90;;;;;;10149867;28;20582;-66
2024/04/03 17:00:27;;;;;;;0.70;0.70;;;17.40;99.90;;;;;;10149784;28;20111;-66
2024/04/03 17:05:18;;;;;;;2.60;1.35;;;17.50;99.90;;;;;;10158711;28;20115;-67
2024/04/03 17:10:12;;;;;;;1.92;0.45;;;16.60;99.90;;;;;;10151349;28;20432;-65
2024/04/03 17:15:03;;;;;;;1.60;0.85;;;16.10;99.90;;;;;;10162656;28;20036;-66
2024/04/03 17:19:54;;;;;;;1.08;0.70;;;15.80;99.90;;;;;;10152104;28;20024;-68
2024/04/03 17:24:44;;;;;;;2.72;0.60;;;15.60;99.90;;;;;;10136727;28;20200;-67
2024/04/03 17:29:36;;;;;;;1.92;0.80;;;15.50;99.90;;;;;;10139201;28;20060;-71
2024/04/03 17:34:26;;;;;;;2.20;1.00;;;15.40;99.90;;;;;;10134413;28;20037;-67
2024/04/03 17:39:17;;;;;;;2.78;1.20;;;15.40;99.90;;;;;;10128919;28;20032;-66
2024/04/03 17:44:08;;;;;;;10.43;3.92;;;15.40;99.90;;;;;;10137224;28;20051;-66
2024/04/03 17:48:58;;;;;;;14.43;5.03;;;15.40;99.90;;;;;;10138809;28;20090;-67
2024/04/03 17:53:49;;;;;;;8.00;3.17;;;15.40;99.90;;;;;;10139745;28;20650;-67
2024/04/03 17:58:40;;;;;;;2.53;1.48;;;15.40;99.90;;;;;;10136064;28;20116;-68
2024/04/03 18:03:32;;;;;;;2.38;1.40;;;15.30;99.90;;;;;;10142422;28;20039;-69
2024/04/03 18:08:22;;;;;;;3.95;1.08;;;15.30;99.90;;;;;;10149455;28;20397;-68
2024/04/03 18:13:13;;;;;;;3.00;1.15;;;15.20;99.90;;;;;;10147619;28;20040;-69
2024/04/03 18:18:04;;;;;;;2.05;1.00;;;15.30;99.90;;;;;;10124014;28;20032;-72
2024/04/03 18:22:55;;;;;;;2.55;0.90;;;15.30;99.90;;;;;;10141430;28;20052;-67
2024/04/03 18:27:46;;;;;;;4.47;1.50;;;15.20;99.90;;;;;;10141343;28;20055;-66
2024/04/03 18:32:36;;;;;;;3.38;1.90;;;15.20;99.90;;;;;;10143932;28;20042;-68
2024/04/03 18:37:28;;;;;;;1.45;0.98;;;15.20;99.90;;;;;;10153033;28;20473;-72
2024/04/03 18:42:18;;;;;;;2.10;0.80;;;15.20;99.90;;;;;;10147430;28;20028;-68
2024/04/03 18:47:09;;;;;;;3.65;1.30;;;15.10;99.90;;;;;;10130687;28;20032;-71
2024/04/03 18:51:59;;;;;;;1.65;1.15;;;15.20;99.90;;;;;;10148800;28;20633;-69
2024/04/03 18:56:50;;;;;;;6.03;1.75;;;15.10;99.90;;;;;;10131503;28;20100;-69
2024/04/03 19:01:41;;;;;;;1.90;0.95;;;15.10;99.90;;;;;;10154482;28;20091;-67
2024/04/03 19:06:32;;;;;;;2.55;0.90;;;15.10;99.90;;;;;;10145830;28;20494;-67
2024/04/03 19:11:22;;;;;;;2.45;1.00;;;15.10;99.90;;;;;;10137131;28;20115;-67
2024/04/03 19:16:13;;;;;;;3.08;0.90;;;15.00;99.90;;;;;;10131253;28;20035;-69
2024/04/03 19:21:08;;;;;;;4.43;1.00;;;15.00;99.90;;;;;;10159728;28;20445;-72
2024/04/03 19:26:00;;;;;;;3.97;1.37;;;15.00;99.90;;;;;;10125315;28;20478;-69
2024/04/03 19:30:53;;;;;;;2.88;1.10;;;15.10;99.90;;;;;;10113610;28;20050;-69
2024/04/03 19:35:47;;;;;;;1.65;0.90;;;15.00;99.90;;;;;;10124997;28;20051;-70
2024/04/03 19:40:37;;;;;;;2.15;0.95;;;15.00;99.90;;;;;;10104041;23;20067;-73
2024/04/03 19:45:28;;;;;;;1.65;0.60;;;14.90;99.90;;;;;;10088757;28;20031;-74
2024/04/03 19:50:19;;;;;;;1.83;1.05;;;15.00;99.90;;;;;;10084134;28;20138;-73
2024/04/03 19:55:09;;;;;;;0.88;0.63;;;15.00;99.90;;;;;;10096966;28;20036;-75
2024/04/03 20:00:06;;;;;;;0.57;0.55;;;14.90;99.90;;;;;;10086346;28;20025;-76
2024/04/03 20:04:56;;;;;;;1.38;0.68;;;14.90;99.90;;;;;;10082355;28;20100;-76
2024/04/03 20:09:48;;;;;;;2.22;0.70;;;14.90;99.90;;;;;;10085158;28;20108;-74
2024/04/03 20:14:39;;;;;;;2.60;0.90;;;15.00;99.90;;;;;;10088549;28;20446;-75
2024/04/03 20:19:29;;;;;;;3.53;0.80;;;14.90;99.90;;;;;;10092378;28;20029;-76
2024/04/03 20:24:20;;;;;;;2.25;0.82;;;14.90;99.90;;;;;;10096568;28;20103;-74
2024/04/03 20:29:11;;;;;;;2.35;1.45;;;15.00;99.90;;;;;;10095378;28;20086;-78
2024/04/03 20:34:02;;;;;;;3.95;1.00;;;15.00;99.90;;;;;;10100785;28;20083;-76
2024/04/03 20:38:53;;;;;;;2.70;0.90;;;14.90;99.90;;;;;;10109750;28;20048;-74
2024/04/03 20:43:46;;;;;;;3.78;0.82;;;14.90;99.90;;;;;;10124223;28;20169;-75
2024/04/03 20:48:36;;;;;;;3.65;1.00;;;14.90;99.90;;;;;;10136628;28;20524;-77
2024/04/03 20:53:27;;;;;;;1.50;1.00;;;14.90;99.90;;;;;;10142213;28;20044;-79
2024/04/03 20:58:17;;;;;;;0.82;0.60;;;14.80;99.90;;;;;;10142660;28;20138;-77
2024/04/03 21:03:08;;;;;;;1.85;0.77;;;14.80;99.90;;;;;;10150313;28;20053;-77
2024/04/03 21:08:00;;;;;;;1.13;0.75;;;14.90;99.90;;;;;;10124042;28;20017;-76
2024/04/03 21:12:50;;;;;;;2.38;0.90;;;14.80;99.90;;;;;;10155949;28;20035;-76
2024/04/03 21:17:42;;;;;;;0.65;0.60;;;14.80;99.90;;;;;;10144366;28;20028;-77
2024/04/03 21:22:32;;;;;;;1.05;0.70;;;14.90;99.90;;;;;;10136342;28;20036;-76
2024/04/03 21:27:23;;;;;;;2.60;0.68;;;14.90;99.90;;;;;;10143656;28;20047;-75
2024/04/03 21:32:14;;;;;;;2.00;1.02;;;15.00;99.90;;;;;;10110863;28;20178;-74
2024/04/03 21:37:05;;;;;;;1.55;0.65;;;14.90;99.90;;;;;;10128166;28;20090;-75
2024/04/03 21:41:56;;;;;;;1.13;0.50;;;14.90;99.90;;;;;;10130402;28;20075;-75
2024/04/03 21:46:50;;;;;;;2.90;0.90;;;14.90;99.90;;;;;;10147569;28;20017;-75
2024/04/03 21:51:41;;;;;;;4.15;0.93;;;14.90;99.90;;;;;;10138486;28;20516;-77
2024/04/03 21:56:32;;;;;;;0.98;0.80;;;14.90;99.90;;;;;;10132214;28;20103;-77
2024/04/03 22:01:22;;;;;;;2.58;0.93;;;14.90;99.90;;;;;;10131783;28;20439;-76
2024/04/03 22:06:13;;;;;;;2.30;0.98;;;14.90;99.90;;;;;;10130098;28;20435;-78
2024/04/03 22:11:03;;;;;;;1.65;0.60;;;14.80;99.90;;;;;;10126560;28;20097;-79
2024/04/03 22:15:54;;;;;;;2.95;1.40;;;14.80;99.90;;;;;;10128645;28;20531;-79
2024/04/03 22:20:45;;;;;;;1.35;0.70;;;14.80;99.90;;;;;;10124554;28;20176;-78
2024/04/03 22:25:36;;;;;;;1.63;0.77;;;14.80;99.90;;;;;;10148511;28;20024;-78
2024/04/03 22:30:26;;;;;;;0.73;0.73;;;14.80;99.90;;;;;;10125548;28;20028;-79
2024/04/03 22:35:17;;;;;;;1.75;1.10;;;14.80;99.90;;;;;;10145848;28;20049;-76
2024/04/03 22:40:09;;;;;;;5.13;0.93;;;14.90;99.90;;;;;;10137245;28;20254;-78
2024/04/03 22:45:00;;;;;;;3.13;1.00;;;14.80;99.90;;;;;;10137740;28;20028;-78
2024/04/03 22:49:50;;;;;;;2.47;1.00;;;14.80;99.90;;;;;;10131896;28;20116;-77
2024/04/03 22:54:41;;;;;;;1.15;0.60;;;14.80;99.90;;;;;;10136676;28;20040;-77
2024/04/03 22:59:32;;;;;;;1.92;0.80;;;14.70;99.90;;;;;;10132230;28;20016;-78
2024/04/03 23:04:22;;;;;;;1.90;0.80;;;14.80;99.90;;;;;;10135493;28;20043;-77
2024/04/03 23:09:13;;;;;;;1.98;0.80;;;14.90;99.90;;;;;;10140760;28;20017;-78
2024/04/03 23:14:04;;;;;;;2.85;0.98;;;14.90;99.90;;;;;;10132431;28;20028;-78
2024/04/03 23:18:57;;;;;;;1.17;0.75;;;14.90;99.90;;;;;;10143846;28;20676;-77
2024/04/03 23:23:48;;;;;;;2.58;0.95;;;14.90;99.90;;;;;;10138076;28;20437;-77
2024/04/03 23:28:39;;;;;;;1.05;0.70;;;14.90;99.90;;;;;;10136475;28;20032;-77
2024/04/03 23:33:29;;;;;;;1.55;0.70;;;14.90;99.90;;;;;;10135749;28;20238;-77
2024/04/03 23:38:21;;;;;;;2.60;1.10;;;14.90;99.90;;;;;;10135212;28;20464;-78
2024/04/03 23:43:14;;;;;;;1.10;0.55;;;14.90;99.90;;;;;;10136490;28;20024;-77
2024/04/03 23:48:05;;;;;;;2.38;0.70;;;14.90;99.90;;;;;;10108592;28;20021;-77
2024/04/03 23:52:55;;;;;;;0.95;0.63;;;15.00;99.90;;;;;;10135009;28;20055;-77
2024/04/03 23:57:46;;;;;;;3.45;0.77;;;15.00;99.90;;;;;;10110000;28;20024;-78
